sensor_id;sensor_type;location;lat;lon;timestamp;P1;durP1;ratioP1;P2;durP2;ratioP2
45420;SDS011;55462;47.042;8.292;2023-04-03T00:00:37;1.58;;;1.55;;
45420;SDS011;55462;47.042;8.292;2023-04-03T00:03:02;1.70;;;1.70;;
45420;SDS011;55462;47.042;8.292;2023-04-03T00:05:28;1.65;;;1.55;;
45420;SDS011;55462;47.042;8.292;2023-04-03T00:07:53;1.33;;;1.33;;
45420;SDS011;55462;47.042;8.292;2023-04-03T00:10:18;1.23;;;1.23;;
45420;SDS011;55462;47.042;8.292;2023-04-03T00:12:44;1.30;;;1.30;;
45420;SDS011;55462;47.042;8.292;2023-04-03T00:15:09;1.40;;;1.40;;
45420;SDS011;55462;47.042;8.292;2023-04-03T00:17:35;1.45;;;1.45;;
45420;SDS011;55462;47.042;8.292;2023-04-03T00:20:01;1.30;;;1.30;;
45420;SDS011;55462;47.042;8.292;2023-04-03T00:22:26;1.30;;;1.30;;
45420;SDS011;55462;47.042;8.292;2023-04-03T00:24:53;1.20;;;1.20;;
45420;SDS011;55462;47.042;8.292;2023-04-03T00:27:19;1.10;;;1.10;;
45420;SDS011;55462;47.042;8.292;2023-04-03T00:29:44;1.10;;;1.10;;
45420;SDS011;55462;47.042;8.292;2023-04-03T00:32:09;1.10;;;1.10;;
45420;SDS011;55462;47.042;8.292;2023-04-03T00:34:35;1.30;;;1.30;;
45420;SDS011;55462;47.042;8.292;2023-04-03T00:37:00;1.53;;;1.43;;
45420;SDS011;55462;47.042;8.292;2023-04-03T00:39:25;1.10;;;1.10;;
45420;SDS011;55462;47.042;8.292;2023-04-03T00:41:51;1.40;;;1.40;;
45420;SDS011;55462;47.042;8.292;2023-04-03T00:47:02;1.90;;;1.80;;
45420;SDS011;55462;47.042;8.292;2023-04-03T00:49:29;1.73;;;1.20;;
45420;SDS011;55462;47.042;8.292;2023-04-03T00:51:55;1.20;;;1.20;;
45420;SDS011;55462;47.042;8.292;2023-04-03T00:54:21;1.60;;;1.60;;
45420;SDS011;55462;47.042;8.292;2023-04-03T00:56:46;1.63;;;1.60;;
45420;SDS011;55462;47.042;8.292;2023-04-03T00:59:16;1.40;;;1.40;;
45420;SDS011;55462;47.042;8.292;2023-04-03T01:01:50;1.50;;;1.50;;
45420;SDS011;55462;47.042;8.292;2023-04-03T01:04:29;1.60;;;1.60;;
45420;SDS011;55462;47.042;8.292;2023-04-03T01:07:07;1.75;;;1.70;;
45420;SDS011;55462;47.042;8.292;2023-04-03T01:09:34;1.67;;;1.67;;
45420;SDS011;55462;47.042;8.292;2023-04-03T01:12:14;2.20;;;2.10;;
45420;SDS011;55462;47.042;8.292;2023-04-03T01:14:47;1.70;;;1.70;;
45420;SDS011;55462;47.042;8.292;2023-04-03T01:22:56;3.20;;;2.90;;
45420;SDS011;55462;47.042;8.292;2023-04-03T01:25:27;3.45;;;3.22;;
45420;SDS011;55462;47.042;8.292;2023-04-03T01:27:52;3.58;;;3.38;;
45420;SDS011;55462;47.042;8.292;2023-04-03T01:30:19;4.70;;;4.30;;
45420;SDS011;55462;47.042;8.292;2023-04-03T01:32:45;4.30;;;3.90;;
45420;SDS011;55462;47.042;8.292;2023-04-03T01:35:10;4.07;;;3.87;;
45420;SDS011;55462;47.042;8.292;2023-04-03T01:37:36;4.67;;;4.37;;
45420;SDS011;55462;47.042;8.292;2023-04-03T01:40:01;5.10;;;4.80;;
45420;SDS011;55462;47.042;8.292;2023-04-03T01:42:28;5.47;;;5.17;;
45420;SDS011;55462;47.042;8.292;2023-04-03T01:44:54;4.90;;;4.60;;
45420;SDS011;55462;47.042;8.292;2023-04-03T01:47:19;5.80;;;5.20;;
45420;SDS011;55462;47.042;8.292;2023-04-03T01:49:45;5.97;;;5.40;;
45420;SDS011;55462;47.042;8.292;2023-04-03T01:52:10;5.43;;;5.03;;
45420;SDS011;55462;47.042;8.292;2023-04-03T01:54:35;5.75;;;5.25;;
45420;SDS011;55462;47.042;8.292;2023-04-03T01:57:01;5.43;;;5.03;;
45420;SDS011;55462;47.042;8.292;2023-04-03T01:59:26;5.17;;;4.77;;
45420;SDS011;55462;47.042;8.292;2023-04-03T02:01:51;5.32;;;4.93;;
45420;SDS011;55462;47.042;8.292;2023-04-03T02:04:17;4.90;;;4.60;;
45420;SDS011;55462;47.042;8.292;2023-04-03T02:06:42;4.50;;;4.10;;
45420;SDS011;55462;47.042;8.292;2023-04-03T02:09:08;4.73;;;4.40;;
45420;SDS011;55462;47.042;8.292;2023-04-03T02:11:33;4.60;;;4.30;;
45420;SDS011;55462;47.042;8.292;2023-04-03T02:13:58;4.70;;;4.35;;
45420;SDS011;55462;47.042;8.292;2023-04-03T02:16:24;3.65;;;3.45;;
45420;SDS011;55462;47.042;8.292;2023-04-03T02:18:49;4.17;;;3.80;;
45420;SDS011;55462;47.042;8.292;2023-04-03T02:21:15;3.80;;;3.60;;
45420;SDS011;55462;47.042;8.292;2023-04-03T02:23:40;4.03;;;3.73;;
45420;SDS011;55462;47.042;8.292;2023-04-03T02:26:10;4.20;;;3.90;;
45420;SDS011;55462;47.042;8.292;2023-04-03T02:28:37;4.23;;;3.93;;
45420;SDS011;55462;47.042;8.292;2023-04-03T02:31:03;4.40;;;4.10;;
45420;SDS011;55462;47.042;8.292;2023-04-03T02:33:31;4.17;;;3.97;;
45420;SDS011;55462;47.042;8.292;2023-04-03T02:35:56;3.90;;;3.70;;
45420;SDS011;55462;47.042;8.292;2023-04-03T02:38:22;3.87;;;3.57;;
45420;SDS011;55462;47.042;8.292;2023-04-03T02:40:48;4.37;;;4.03;;
45420;SDS011;55462;47.042;8.292;2023-04-03T02:43:13;4.00;;;3.80;;
45420;SDS011;55462;47.042;8.292;2023-04-03T02:45:38;3.80;;;3.60;;
45420;SDS011;55462;47.042;8.292;2023-04-03T02:48:04;4.20;;;4.00;;
45420;SDS011;55462;47.042;8.292;2023-04-03T02:50:30;4.07;;;3.87;;
45420;SDS011;55462;47.042;8.292;2023-04-03T02:52:55;4.27;;;4.07;;
45420;SDS011;55462;47.042;8.292;2023-04-03T02:55:20;4.57;;;4.27;;
45420;SDS011;55462;47.042;8.292;2023-04-03T02:57:46;4.57;;;4.27;;
45420;SDS011;55462;47.042;8.292;2023-04-03T03:00:11;4.57;;;4.17;;
45420;SDS011;55462;47.042;8.292;2023-04-03T03:02:37;4.27;;;3.97;;
45420;SDS011;55462;47.042;8.292;2023-04-03T03:05:02;5.10;;;4.67;;
45420;SDS011;55462;47.042;8.292;2023-04-03T03:07:27;3.97;;;3.77;;
45420;SDS011;55462;47.042;8.292;2023-04-03T03:09:53;4.70;;;4.40;;
45420;SDS011;55462;47.042;8.292;2023-04-03T03:12:18;4.57;;;4.27;;
45420;SDS011;55462;47.042;8.292;2023-04-03T03:14:48;4.70;;;4.30;;
45420;SDS011;55462;47.042;8.292;2023-04-03T03:17:13;4.17;;;3.77;;
45420;SDS011;55462;47.042;8.292;2023-04-03T03:19:39;4.27;;;3.97;;
45420;SDS011;55462;47.042;8.292;2023-04-03T03:22:04;4.33;;;4.03;;
45420;SDS011;55462;47.042;8.292;2023-04-03T03:24:29;4.73;;;4.37;;
45420;SDS011;55462;47.042;8.292;2023-04-03T03:26:55;5.57;;;5.07;;
45420;SDS011;55462;47.042;8.292;2023-04-03T03:29:20;5.10;;;4.70;;
45420;SDS011;55462;47.042;8.292;2023-04-03T03:31:46;4.73;;;4.43;;
45420;SDS011;55462;47.042;8.292;2023-04-03T03:34:11;4.80;;;4.50;;
45420;SDS011;55462;47.042;8.292;2023-04-03T03:36:37;4.47;;;4.17;;
45420;SDS011;55462;47.042;8.292;2023-04-03T03:39:02;4.60;;;4.30;;
45420;SDS011;55462;47.042;8.292;2023-04-03T03:41:27;6.20;;;5.37;;
45420;SDS011;55462;47.042;8.292;2023-04-03T03:43:53;4.80;;;4.40;;
45420;SDS011;55462;47.042;8.292;2023-04-03T03:46:18;5.40;;;5.00;;
45420;SDS011;55462;47.042;8.292;2023-04-03T03:48:43;5.07;;;4.67;;
45420;SDS011;55462;47.042;8.292;2023-04-03T03:51:09;5.40;;;4.97;;
45420;SDS011;55462;47.042;8.292;2023-04-03T03:53:34;4.50;;;4.20;;
45420;SDS011;55462;47.042;8.292;2023-04-03T03:56:00;5.40;;;5.00;;
45420;SDS011;55462;47.042;8.292;2023-04-03T03:58:25;5.40;;;4.93;;
45420;SDS011;55462;47.042;8.292;2023-04-03T04:00:50;4.73;;;4.30;;
45420;SDS011;55462;47.042;8.292;2023-04-03T04:03:16;4.90;;;4.60;;
45420;SDS011;55462;47.042;8.292;2023-04-03T04:05:41;5.40;;;4.90;;
45420;SDS011;55462;47.042;8.292;2023-04-03T04:08:07;5.30;;;4.90;;
45420;SDS011;55462;47.042;8.292;2023-04-03T04:10:32;7.97;;;4.83;;
45420;SDS011;55462;47.042;8.292;2023-04-03T04:12:58;6.00;;;5.50;;
45420;SDS011;55462;47.042;8.292;2023-04-03T04:15:23;6.07;;;5.57;;
45420;SDS011;55462;47.042;8.292;2023-04-03T04:17:50;5.63;;;5.13;;
45420;SDS011;55462;47.042;8.292;2023-04-03T04:20:15;5.50;;;5.10;;
45420;SDS011;55462;47.042;8.292;2023-04-03T04:22:41;6.40;;;5.80;;
45420;SDS011;55462;47.042;8.292;2023-04-03T04:25:06;5.67;;;5.17;;
45420;SDS011;55462;47.042;8.292;2023-04-03T04:27:32;6.07;;;5.57;;
45420;SDS011;55462;47.042;8.292;2023-04-03T04:29:57;5.77;;;5.37;;
45420;SDS011;55462;47.042;8.292;2023-04-03T04:32:22;5.70;;;5.20;;
45420;SDS011;55462;47.042;8.292;2023-04-03T04:34:48;6.00;;;5.50;;
45420;SDS011;55462;47.042;8.292;2023-04-03T04:37:13;5.77;;;5.27;;
45420;SDS011;55462;47.042;8.292;2023-04-03T04:39:38;5.50;;;5.10;;
45420;SDS011;55462;47.042;8.292;2023-04-03T04:42:04;5.30;;;4.90;;
45420;SDS011;55462;47.042;8.292;2023-04-03T04:44:29;5.20;;;4.87;;
45420;SDS011;55462;47.042;8.292;2023-04-03T04:46:54;5.20;;;4.70;;
45420;SDS011;55462;47.042;8.292;2023-04-03T04:49:20;4.87;;;4.57;;
45420;SDS011;55462;47.042;8.292;2023-04-03T04:51:45;5.20;;;4.77;;
45420;SDS011;55462;47.042;8.292;2023-04-03T04:54:10;5.00;;;4.70;;
45420;SDS011;55462;47.042;8.292;2023-04-03T04:56:36;5.00;;;4.60;;
45420;SDS011;55462;47.042;8.292;2023-04-03T04:59:01;5.30;;;4.90;;
45420;SDS011;55462;47.042;8.292;2023-04-03T05:01:26;4.43;;;4.13;;
45420;SDS011;55462;47.042;8.292;2023-04-03T05:03:52;4.60;;;4.30;;
45420;SDS011;55462;47.042;8.292;2023-04-03T05:06:17;4.93;;;4.63;;
45420;SDS011;55462;47.042;8.292;2023-04-03T05:08:42;4.57;;;4.27;;
45420;SDS011;55462;47.042;8.292;2023-04-03T05:11:08;5.30;;;4.90;;
45420;SDS011;55462;47.042;8.292;2023-04-03T05:13:33;5.00;;;4.60;;
45420;SDS011;55462;47.042;8.292;2023-04-03T05:15:58;4.63;;;4.30;;
45420;SDS011;55462;47.042;8.292;2023-04-03T05:18:24;4.87;;;4.47;;
45420;SDS011;55462;47.042;8.292;2023-04-03T05:20:49;4.80;;;4.40;;
45420;SDS011;55462;47.042;8.292;2023-04-03T05:23:17;5.17;;;4.40;;
45420;SDS011;55462;47.042;8.292;2023-04-03T05:25:43;5.17;;;4.77;;
45420;SDS011;55462;47.042;8.292;2023-04-03T05:28:10;4.80;;;4.50;;
45420;SDS011;55462;47.042;8.292;2023-04-03T05:30:35;5.50;;;5.00;;
45420;SDS011;55462;47.042;8.292;2023-04-03T05:33:01;5.30;;;4.90;;
45420;SDS011;55462;47.042;8.292;2023-04-03T05:35:26;5.00;;;4.60;;
45420;SDS011;55462;47.042;8.292;2023-04-03T05:37:51;4.70;;;4.30;;
45420;SDS011;55462;47.042;8.292;2023-04-03T05:40:17;4.63;;;4.33;;
45420;SDS011;55462;47.042;8.292;2023-04-03T05:42:43;4.57;;;4.27;;
45420;SDS011;55462;47.042;8.292;2023-04-03T05:45:09;4.77;;;4.40;;
45420;SDS011;55462;47.042;8.292;2023-04-03T05:47:34;5.20;;;4.80;;
45420;SDS011;55462;47.042;8.292;2023-04-03T05:50:00;5.67;;;5.17;;
45420;SDS011;55462;47.042;8.292;2023-04-03T05:54:52;5.53;;;5.13;;
45420;SDS011;55462;47.042;8.292;2023-04-03T05:57:18;5.03;;;4.70;;
45420;SDS011;55462;47.042;8.292;2023-04-03T05:59:44;5.00;;;4.50;;
45420;SDS011;55462;47.042;8.292;2023-04-03T06:02:11;6.33;;;5.33;;
45420;SDS011;55462;47.042;8.292;2023-04-03T06:04:41;5.37;;;4.97;;
45420;SDS011;55462;47.042;8.292;2023-04-03T06:07:06;5.80;;;5.10;;
45420;SDS011;55462;47.042;8.292;2023-04-03T06:09:33;4.70;;;4.40;;
45420;SDS011;55462;47.042;8.292;2023-04-03T06:11:59;4.90;;;4.60;;
45420;SDS011;55462;47.042;8.292;2023-04-03T06:14:25;4.90;;;4.53;;
45420;SDS011;55462;47.042;8.292;2023-04-03T06:16:51;5.50;;;5.10;;
45420;SDS011;55462;47.042;8.292;2023-04-03T06:19:17;4.60;;;4.23;;
45420;SDS011;55462;47.042;8.292;2023-04-03T06:21:43;5.53;;;5.03;;
45420;SDS011;55462;47.042;8.292;2023-04-03T06:24:09;4.53;;;4.23;;
45420;SDS011;55462;47.042;8.292;2023-04-03T06:26:35;4.77;;;4.40;;
45420;SDS011;55462;47.042;8.292;2023-04-03T06:29:00;4.70;;;4.30;;
45420;SDS011;55462;47.042;8.292;2023-04-03T06:31:25;4.83;;;4.43;;
45420;SDS011;55462;47.042;8.292;2023-04-03T06:33:51;5.73;;;4.90;;
45420;SDS011;55462;47.042;8.292;2023-04-03T06:36:17;4.20;;;3.90;;
45420;SDS011;55462;47.042;8.292;2023-04-03T06:38:45;5.20;;;4.73;;
45420;SDS011;55462;47.042;8.292;2023-04-03T06:41:11;5.13;;;4.80;;
45420;SDS011;55462;47.042;8.292;2023-04-03T06:43:36;5.23;;;4.80;;
45420;SDS011;55462;47.042;8.292;2023-04-03T06:46:02;6.40;;;5.30;;
45420;SDS011;55462;47.042;8.292;2023-04-03T06:48:27;5.10;;;4.70;;
45420;SDS011;55462;47.042;8.292;2023-04-03T06:50:53;5.40;;;5.00;;
45420;SDS011;55462;47.042;8.292;2023-04-03T06:53:18;5.30;;;4.90;;
45420;SDS011;55462;47.042;8.292;2023-04-03T06:55:43;5.47;;;4.97;;
45420;SDS011;55462;47.042;8.292;2023-04-03T06:58:09;5.57;;;5.07;;
45420;SDS011;55462;47.042;8.292;2023-04-03T07:00:34;5.70;;;5.20;;
45420;SDS011;55462;47.042;8.292;2023-04-03T07:02:59;5.57;;;5.07;;
45420;SDS011;55462;47.042;8.292;2023-04-03T07:05:25;5.53;;;5.13;;
45420;SDS011;55462;47.042;8.292;2023-04-03T07:07:51;5.60;;;5.10;;
45420;SDS011;55462;47.042;8.292;2023-04-03T07:10:17;5.67;;;5.00;;
45420;SDS011;55462;47.042;8.292;2023-04-03T07:12:42;5.47;;;5.07;;
45420;SDS011;55462;47.042;8.292;2023-04-03T07:15:08;5.40;;;5.00;;
45420;SDS011;55462;47.042;8.292;2023-04-03T07:17:34;5.27;;;4.87;;
45420;SDS011;55462;47.042;8.292;2023-04-03T07:20:00;5.03;;;4.67;;
45420;SDS011;55462;47.042;8.292;2023-04-03T07:22:26;7.30;;;5.33;;
45420;SDS011;55462;47.042;8.292;2023-04-03T07:24:51;5.60;;;5.10;;
45420;SDS011;55462;47.042;8.292;2023-04-03T07:27:17;5.63;;;5.07;;
45420;SDS011;55462;47.042;8.292;2023-04-03T07:29:42;5.30;;;4.80;;
45420;SDS011;55462;47.042;8.292;2023-04-03T07:32:08;5.17;;;4.77;;
45420;SDS011;55462;47.042;8.292;2023-04-03T07:34:34;6.00;;;5.50;;
45420;SDS011;55462;47.042;8.292;2023-04-03T07:37:00;5.03;;;4.63;;
45420;SDS011;55462;47.042;8.292;2023-04-03T07:39:26;5.23;;;4.70;;
45420;SDS011;55462;47.042;8.292;2023-04-03T07:41:51;4.63;;;4.23;;
45420;SDS011;55462;47.042;8.292;2023-04-03T07:44:17;5.10;;;4.50;;
45420;SDS011;55462;47.042;8.292;2023-04-03T07:46:42;4.87;;;4.50;;
45420;SDS011;55462;47.042;8.292;2023-04-03T07:49:08;5.00;;;4.50;;
45420;SDS011;55462;47.042;8.292;2023-04-03T07:51:33;5.13;;;4.73;;
45420;SDS011;55462;47.042;8.292;2023-04-03T07:53:58;4.50;;;4.10;;
45420;SDS011;55462;47.042;8.292;2023-04-03T07:56:24;5.50;;;4.97;;
45420;SDS011;55462;47.042;8.292;2023-04-03T07:58:50;4.53;;;4.23;;
45420;SDS011;55462;47.042;8.292;2023-04-03T08:01:15;4.73;;;4.43;;
45420;SDS011;55462;47.042;8.292;2023-04-03T08:03:41;4.67;;;4.20;;
45420;SDS011;55462;47.042;8.292;2023-04-03T08:06:06;4.57;;;4.17;;
45420;SDS011;55462;47.042;8.292;2023-04-03T08:08:33;4.87;;;4.50;;
45420;SDS011;55462;47.042;8.292;2023-04-03T08:10:59;4.87;;;4.50;;
45420;SDS011;55462;47.042;8.292;2023-04-03T08:13:25;4.70;;;4.30;;
45420;SDS011;55462;47.042;8.292;2023-04-03T08:15:50;4.83;;;4.43;;
45420;SDS011;55462;47.042;8.292;2023-04-03T08:18:16;4.80;;;4.40;;
45420;SDS011;55462;47.042;8.292;2023-04-03T08:20:43;4.37;;;4.03;;
45420;SDS011;55462;47.042;8.292;2023-04-03T08:23:09;4.47;;;4.17;;
45420;SDS011;55462;47.042;8.292;2023-04-03T08:25:39;5.10;;;4.70;;
45420;SDS011;55462;47.042;8.292;2023-04-03T08:28:05;5.00;;;4.50;;
45420;SDS011;55462;47.042;8.292;2023-04-03T08:30:30;4.97;;;4.57;;
45420;SDS011;55462;47.042;8.292;2023-04-03T08:32:55;5.07;;;4.67;;
45420;SDS011;55462;47.042;8.292;2023-04-03T08:35:21;6.67;;;4.67;;
45420;SDS011;55462;47.042;8.292;2023-04-03T08:37:46;5.50;;;5.00;;
45420;SDS011;55462;47.042;8.292;2023-04-03T08:40:15;4.57;;;4.17;;
45420;SDS011;55462;47.042;8.292;2023-04-03T08:42:45;4.93;;;4.53;;
45420;SDS011;55462;47.042;8.292;2023-04-03T08:45:13;4.97;;;4.47;;
45420;SDS011;55462;47.042;8.292;2023-04-03T08:50:37;4.33;;;4.03;;
45420;SDS011;55462;47.042;8.292;2023-04-03T08:53:05;4.27;;;3.87;;
45420;SDS011;55462;47.042;8.292;2023-04-03T08:55:38;4.90;;;4.50;;
45420;SDS011;55462;47.042;8.292;2023-04-03T08:58:06;5.10;;;4.60;;
45420;SDS011;55462;47.042;8.292;2023-04-03T09:00:37;4.70;;;4.23;;
45420;SDS011;55462;47.042;8.292;2023-04-03T09:03:11;4.80;;;4.40;;
45420;SDS011;55462;47.042;8.292;2023-04-03T09:11:06;4.60;;;4.20;;
45420;SDS011;55462;47.042;8.292;2023-04-03T09:13:54;4.63;;;3.93;;
45420;SDS011;55462;47.042;8.292;2023-04-03T09:21:56;5.10;;;4.60;;
45420;SDS011;55462;47.042;8.292;2023-04-03T09:24:22;9.87;;;4.50;;
45420;SDS011;55462;47.042;8.292;2023-04-03T09:26:51;4.73;;;4.33;;
45420;SDS011;55462;47.042;8.292;2023-04-03T09:29:20;5.07;;;4.53;;
45420;SDS011;55462;47.042;8.292;2023-04-03T09:31:48;5.23;;;4.30;;
45420;SDS011;55462;47.042;8.292;2023-04-03T09:36:51;4.60;;;4.20;;
45420;SDS011;55462;47.042;8.292;2023-04-03T09:39:20;4.47;;;4.10;;
45420;SDS011;55462;47.042;8.292;2023-04-03T09:44:37;4.77;;;4.37;;
45420;SDS011;55462;47.042;8.292;2023-04-03T09:49:47;4.10;;;3.80;;
45420;SDS011;55462;47.042;8.292;2023-04-03T09:52:20;4.03;;;3.70;;
45420;SDS011;55462;47.042;8.292;2023-04-03T09:54:49;5.50;;;5.00;;
45420;SDS011;55462;47.042;8.292;2023-04-03T09:57:14;5.13;;;4.70;;
45420;SDS011;55462;47.042;8.292;2023-04-03T09:59:58;4.03;;;3.73;;
45420;SDS011;55462;47.042;8.292;2023-04-03T10:02:31;4.70;;;4.30;;
45420;SDS011;55462;47.042;8.292;2023-04-03T10:04:57;4.87;;;4.43;;
45420;SDS011;55462;47.042;8.292;2023-04-03T10:07:27;4.27;;;3.97;;
45420;SDS011;55462;47.042;8.292;2023-04-03T10:09:59;4.40;;;4.00;;
45420;SDS011;55462;47.042;8.292;2023-04-03T10:12:28;4.17;;;3.87;;
45420;SDS011;55462;47.042;8.292;2023-04-03T10:14:56;3.73;;;3.43;;
45420;SDS011;55462;47.042;8.292;2023-04-03T10:25:55;4.23;;;3.93;;
45420;SDS011;55462;47.042;8.292;2023-04-03T10:28:39;4.53;;;3.80;;
45420;SDS011;55462;47.042;8.292;2023-04-03T10:33:45;6.03;;;3.90;;
45420;SDS011;55462;47.042;8.292;2023-04-03T10:36:37;4.17;;;3.87;;
45420;SDS011;55462;47.042;8.292;2023-04-03T10:39:50;3.93;;;3.63;;
45420;SDS011;55462;47.042;8.292;2023-04-03T10:42:24;4.50;;;4.10;;
45420;SDS011;55462;47.042;8.292;2023-04-03T10:58:32;3.97;;;3.60;;
45420;SDS011;55462;47.042;8.292;2023-04-03T11:01:06;4.40;;;4.00;;
45420;SDS011;55462;47.042;8.292;2023-04-03T11:03:39;3.93;;;3.63;;
45420;SDS011;55462;47.042;8.292;2023-04-03T11:06:07;4.47;;;4.10;;
45420;SDS011;55462;47.042;8.292;2023-04-03T11:11:06;4.17;;;3.80;;
45420;SDS011;55462;47.042;8.292;2023-04-03T11:13:35;4.10;;;3.80;;
45420;SDS011;55462;47.042;8.292;2023-04-03T11:16:04;6.10;;;3.83;;
45420;SDS011;55462;47.042;8.292;2023-04-03T11:21:29;4.63;;;4.23;;
45420;SDS011;55462;47.042;8.292;2023-04-03T11:23:59;3.87;;;3.57;;
45420;SDS011;55462;47.042;8.292;2023-04-03T11:26:29;4.20;;;3.80;;
45420;SDS011;55462;47.042;8.292;2023-04-03T11:29:01;4.10;;;3.70;;
45420;SDS011;55462;47.042;8.292;2023-04-03T11:31:41;4.17;;;3.73;;
45420;SDS011;55462;47.042;8.292;2023-04-03T11:37:16;3.87;;;3.30;;
45420;SDS011;55462;47.042;8.292;2023-04-03T11:39:49;4.33;;;3.30;;
45420;SDS011;55462;47.042;8.292;2023-04-03T11:42:40;4.00;;;3.70;;
45420;SDS011;55462;47.042;8.292;2023-04-03T11:47:50;3.47;;;3.23;;
45420;SDS011;55462;47.042;8.292;2023-04-03T11:50:30;3.67;;;3.37;;
45420;SDS011;55462;47.042;8.292;2023-04-03T11:52:59;3.30;;;3.10;;
45420;SDS011;55462;47.042;8.292;2023-04-03T11:58:14;4.17;;;3.47;;
45420;SDS011;55462;47.042;8.292;2023-04-03T12:05:55;3.30;;;3.10;;
45420;SDS011;55462;47.042;8.292;2023-04-03T12:08:36;3.80;;;3.50;;
45420;SDS011;55462;47.042;8.292;2023-04-03T12:16:19;4.60;;;3.20;;
45420;SDS011;55462;47.042;8.292;2023-04-03T12:21:15;3.90;;;3.60;;
45420;SDS011;55462;47.042;8.292;2023-04-03T12:26:34;3.90;;;3.53;;
45420;SDS011;55462;47.042;8.292;2023-04-03T12:29:10;3.40;;;3.10;;
45420;SDS011;55462;47.042;8.292;2023-04-03T12:31:43;3.50;;;3.20;;
45420;SDS011;55462;47.042;8.292;2023-04-03T12:40:20;3.70;;;3.40;;
45420;SDS011;55462;47.042;8.292;2023-04-03T12:43:01;3.60;;;3.30;;
45420;SDS011;55462;47.042;8.292;2023-04-03T12:45:29;3.93;;;3.63;;
45420;SDS011;55462;47.042;8.292;2023-04-03T12:48:15;3.00;;;2.80;;
45420;SDS011;55462;47.042;8.292;2023-04-03T12:50:43;3.17;;;2.97;;
45420;SDS011;55462;47.042;8.292;2023-04-03T12:53:18;3.58;;;3.28;;
45420;SDS011;55462;47.042;8.292;2023-04-03T12:55:45;3.67;;;3.37;;
45420;SDS011;55462;47.042;8.292;2023-04-03T12:58:19;4.00;;;3.30;;
45420;SDS011;55462;47.042;8.292;2023-04-03T13:00:57;3.37;;;3.07;;
45420;SDS011;55462;47.042;8.292;2023-04-03T13:03:35;3.13;;;2.90;;
45420;SDS011;55462;47.042;8.292;2023-04-03T13:06:03;3.97;;;3.33;;
45420;SDS011;55462;47.042;8.292;2023-04-03T13:08:29;3.43;;;3.23;;
45420;SDS011;55462;47.042;8.292;2023-04-03T13:11:03;3.80;;;3.10;;
45420;SDS011;55462;47.042;8.292;2023-04-03T13:13:31;2.90;;;2.70;;
45420;SDS011;55462;47.042;8.292;2023-04-03T13:15:56;3.37;;;3.17;;
45420;SDS011;55462;47.042;8.292;2023-04-03T13:20:51;3.20;;;3.00;;
45420;SDS011;55462;47.042;8.292;2023-04-03T13:23:17;3.27;;;3.07;;
45420;SDS011;55462;47.042;8.292;2023-04-03T13:25:45;3.53;;;3.20;;
45420;SDS011;55462;47.042;8.292;2023-04-03T13:28:13;3.50;;;3.20;;
45420;SDS011;55462;47.042;8.292;2023-04-03T13:30:41;3.23;;;2.93;;
45420;SDS011;55462;47.042;8.292;2023-04-03T13:33:43;3.10;;;2.90;;
45420;SDS011;55462;47.042;8.292;2023-04-03T13:36:21;2.75;;;2.55;;
45420;SDS011;55462;47.042;8.292;2023-04-03T13:39:02;2.78;;;2.58;;
45420;SDS011;55462;47.042;8.292;2023-04-03T13:41:33;3.00;;;2.70;;
45420;SDS011;55462;47.042;8.292;2023-04-03T13:46:47;5.05;;;3.03;;
45420;SDS011;55462;47.042;8.292;2023-04-03T13:49:20;2.90;;;2.70;;
45420;SDS011;55462;47.042;8.292;2023-04-03T13:51:51;3.10;;;2.90;;
45420;SDS011;55462;47.042;8.292;2023-04-03T13:54:18;3.17;;;2.97;;
45420;SDS011;55462;47.042;8.292;2023-04-03T13:56:47;3.83;;;3.37;;
45420;SDS011;55462;47.042;8.292;2023-04-03T14:04:32;3.27;;;2.97;;
45420;SDS011;55462;47.042;8.292;2023-04-03T14:07:09;2.95;;;2.75;;
45420;SDS011;55462;47.042;8.292;2023-04-03T14:09:37;3.53;;;2.97;;
45420;SDS011;55462;47.042;8.292;2023-04-03T14:12:07;4.35;;;2.90;;
45420;SDS011;55462;47.042;8.292;2023-04-03T14:14:36;3.17;;;2.95;;
45420;SDS011;55462;47.042;8.292;2023-04-03T14:17:03;5.57;;;3.07;;
45420;SDS011;55462;47.042;8.292;2023-04-03T14:19:38;3.70;;;3.40;;
45420;SDS011;55462;47.042;8.292;2023-04-03T14:22:11;3.60;;;3.33;;
45420;SDS011;55462;47.042;8.292;2023-04-03T14:24:39;3.78;;;3.47;;
45420;SDS011;55462;47.042;8.292;2023-04-03T14:27:08;3.92;;;3.45;;
45420;SDS011;55462;47.042;8.292;2023-04-03T14:29:42;3.45;;;3.15;;
45420;SDS011;55462;47.042;8.292;2023-04-03T14:32:10;3.70;;;3.40;;
45420;SDS011;55462;47.042;8.292;2023-04-03T14:34:36;3.77;;;3.23;;
45420;SDS011;55462;47.042;8.292;2023-04-03T14:37:02;4.53;;;3.43;;
45420;SDS011;55462;47.042;8.292;2023-04-03T14:39:27;4.00;;;3.50;;
45420;SDS011;55462;47.042;8.292;2023-04-03T14:41:52;3.28;;;3.08;;
45420;SDS011;55462;47.042;8.292;2023-04-03T14:44:18;4.60;;;3.85;;
45420;SDS011;55462;47.042;8.292;2023-04-03T14:46:43;3.60;;;3.30;;
45420;SDS011;55462;47.042;8.292;2023-04-03T14:49:25;2.92;;;2.78;;
45420;SDS011;55462;47.042;8.292;2023-04-03T14:51:53;3.47;;;3.17;;
45420;SDS011;55462;47.042;8.292;2023-04-03T14:54:20;3.20;;;3.00;;
45420;SDS011;55462;47.042;8.292;2023-04-03T14:56:50;3.72;;;3.42;;
45420;SDS011;55462;47.042;8.292;2023-04-03T14:59:16;3.58;;;3.28;;
45420;SDS011;55462;47.042;8.292;2023-04-03T15:01:42;3.47;;;3.28;;
45420;SDS011;55462;47.042;8.292;2023-04-03T15:04:10;3.10;;;2.90;;
45420;SDS011;55462;47.042;8.292;2023-04-03T15:06:37;3.17;;;2.87;;
45420;SDS011;55462;47.042;8.292;2023-04-03T15:09:02;3.60;;;3.40;;
45420;SDS011;55462;47.042;8.292;2023-04-03T15:11:28;3.85;;;3.55;;
45420;SDS011;55462;47.042;8.292;2023-04-03T15:13:53;2.97;;;2.77;;
45420;SDS011;55462;47.042;8.292;2023-04-03T15:16:19;3.73;;;3.43;;
45420;SDS011;55462;47.042;8.292;2023-04-03T15:18:45;3.87;;;3.47;;
45420;SDS011;55462;47.042;8.292;2023-04-03T15:21:10;3.77;;;3.47;;
45420;SDS011;55462;47.042;8.292;2023-04-03T15:23:36;3.67;;;3.37;;
45420;SDS011;55462;47.042;8.292;2023-04-03T15:26:02;3.67;;;3.38;;
45420;SDS011;55462;47.042;8.292;2023-04-03T15:28:40;3.93;;;3.53;;
45420;SDS011;55462;47.042;8.292;2023-04-03T15:31:07;3.30;;;3.10;;
45420;SDS011;55462;47.042;8.292;2023-04-03T15:33:32;3.67;;;3.38;;
45420;SDS011;55462;47.042;8.292;2023-04-03T15:35:58;3.27;;;3.03;;
45420;SDS011;55462;47.042;8.292;2023-04-03T15:38:24;3.67;;;3.38;;
45420;SDS011;55462;47.042;8.292;2023-04-03T15:40:49;3.85;;;3.55;;
45420;SDS011;55462;47.042;8.292;2023-04-03T15:43:15;4.22;;;3.75;;
45420;SDS011;55462;47.042;8.292;2023-04-03T15:45:40;3.70;;;3.40;;
45420;SDS011;55462;47.042;8.292;2023-04-03T15:48:06;3.50;;;3.20;;
45420;SDS011;55462;47.042;8.292;2023-04-03T15:50:32;3.90;;;3.57;;
45420;SDS011;55462;47.042;8.292;2023-04-03T15:52:58;3.37;;;3.07;;
45420;SDS011;55462;47.042;8.292;2023-04-03T15:55:24;4.00;;;3.67;;
45420;SDS011;55462;47.042;8.292;2023-04-03T15:57:51;3.87;;;3.50;;
45420;SDS011;55462;47.042;8.292;2023-04-03T16:00:17;3.57;;;3.37;;
45420;SDS011;55462;47.042;8.292;2023-04-03T16:02:43;3.83;;;3.43;;
45420;SDS011;55462;47.042;8.292;2023-04-03T16:05:09;3.67;;;3.33;;
45420;SDS011;55462;47.042;8.292;2023-04-03T16:07:36;3.87;;;3.30;;
45420;SDS011;55462;47.042;8.292;2023-04-03T16:10:02;3.28;;;3.00;;
45420;SDS011;55462;47.042;8.292;2023-04-03T16:12:28;3.67;;;3.37;;
45420;SDS011;55462;47.042;8.292;2023-04-03T16:14:53;3.28;;;3.08;;
45420;SDS011;55462;47.042;8.292;2023-04-03T16:17:18;4.17;;;3.13;;
45420;SDS011;55462;47.042;8.292;2023-04-03T16:19:44;3.70;;;3.40;;
45420;SDS011;55462;47.042;8.292;2023-04-03T16:22:09;4.00;;;3.47;;
45420;SDS011;55462;47.042;8.292;2023-04-03T16:24:35;4.07;;;3.20;;
45420;SDS011;55462;47.042;8.292;2023-04-03T16:27:00;3.70;;;3.40;;
45420;SDS011;55462;47.042;8.292;2023-04-03T16:29:25;3.00;;;2.80;;
45420;SDS011;55462;47.042;8.292;2023-04-03T16:31:51;3.80;;;3.10;;
45420;SDS011;55462;47.042;8.292;2023-04-03T16:34:16;4.97;;;3.20;;